Terminal Aerodrome Forecast
Issued by NWS Tulsa, OK

Home | Current Version | Previous Version | Text Only | Print | Product List | Glossary On
Versions: 1 2 3 4 5 6 7 8 9 10 11 12 13
000
FTUS44 KTSA 210500
TAFTUL
TAF
KTUL 210520Z 2106/2206 17006KT P6SM SCT050 BKN120
     FM210900 17006KT P6SM BKN020
     FM211200 20005KT P6SM OVC015
      TEMPO 2112/2116 5SM -SHRA OVC008
     FM211900 30006KT P6SM BKN030
     FM220300 34005KT P6SM SKC=

USA.gov is the U.S. government's official web portal to all federal, state and local government web resources and services.